Surface observations / UK / EGBB

Quebec | Canada | USA | France | UK | Europe | Elsewhere

Display: Info & Location for EGBB | Help decoding METAR

EGBB BIRMINGHAM AIRPORT -- UK
Raw surface observations for station EGBB
EGBB 030620Z 31005KT 9999 FEW022 11/08 Q1015=
EGBB 030550Z 30006KT 9999 SCT019 11/08 Q1015=
EGBB 030520Z 30006KT 9999 BKN015 10/08 Q1015=
EGBB 030450Z 29007KT 9999 -RA SCT038 BKN046 10/08 Q1015=
EGBB 030420Z 30005KT 9999 SCT033 BKN038 11/08 Q1015=
EGBB 030350Z 29007KT 9999 SCT040 11/08 Q1015=
EGBB 030320Z 28005KT 250V320 9999 SCT043 11/08 Q1015=
EGBB 030250Z 28006KT 9999 BKN043 11/08 Q1015=
EGBB 030220Z 27006KT 9999 BKN048 11/08 Q1015=
EGBB 030150Z 27005KT 9999 FEW022 11/08 Q1016=
EGBB 030120Z 28005KT CAVOK 11/08 Q1016=
EGBB 030050Z 28004KT CAVOK 11/08 Q1016=
EGBB 030020Z 26005KT CAVOK 11/08 Q1016=
EGBB 022350Z 28005KT CAVOK 11/08 Q1017=
EGBB 022320Z 29005KT CAVOK 11/08 Q1017=
EGBB 022250Z 28004KT 250V320 CAVOK 11/08 Q1017=
EGBB 022220Z 32006KT CAVOK 11/08 Q1017=
EGBB 022150Z 30005KT CAVOK 11/08 Q1017=
EGBB 022120Z 31007KT CAVOK 12/08 Q1017=
EGBB 022050Z 31006KT 9999 FEW023 12/08 Q1017=
EGBB 022020Z 32010KT 9999 SCT027 13/08 Q1017=
EGBB 021950Z 32010KT 9999 SCT020 13/08 Q1017=
EGBB 021920Z 32007KT CAVOK 13/09 Q1017=
EGBB 021850Z 32011KT CAVOK 13/09 Q1017=
EGBB 021820Z 31010KT 9999 FEW021 14/10 Q1017=
EGBB 021750Z 31009KT 9999 FEW032CB 14/11 Q1017=
EGBB 021720Z 31011KT 9999 FEW014 BKN032CB 14/10 Q1017=
EGBB 021650Z 31009KT 9999 VCSH FEW015 BKN032CB 14/11 Q1017=
EGBB 021550Z VRB03KT 9999 VCSH FEW012 BKN032 14/12 Q1017 RESHRA=
EGBB 021520Z 12004KT 9999 -SHRA SCT034 15/11 Q1017=
EGBB 021450Z 10005KT 9999 VCSH FEW024 BKN034 15/11 Q1017=
EGBB 021420Z 08006KT 020V130 9999 VCSH FEW021CB SCT035 15/10 Q1017=
EGBB 021350Z 05006KT 010V100 9999 VCSH FEW026CB SCT035 15/11 Q1017=
EGBB 021320Z 13005KT 9999 VCSH FEW026 BKN038 15/10 Q1017=
EGBB 021250Z 12006KT 080V140 9999 VCSH SCT024 SCT040 14/10 Q1017=
EGBB 021220Z VRB03KT 9999 BKN032 15/09 Q1017=
EGBB 021150Z 32004KT 280V360 9999 SCT023 SCT032 15/09 Q1018=
EGBB 021120Z VRB04KT 9999 SCT020 BKN026 15/10 Q1018=
EGBB 021050Z 31005KT 290V360 9999 BKN016 BKN021 14/10 Q1018=
EGBB 021020Z 33006KT 290V360 9999 BKN015 BKN020 14/10 Q1018=
EGBB 020950Z 32007KT 290V350 9999 BKN014 13/10 Q1018=
EGBB 020920Z 33007KT 9999 BKN013 13/10 Q1018=
EGBB 020850Z 31007KT 9999 BKN015 12/09 Q1018=
EGBB 020820Z 31006KT 9999 FEW011 SCT016 BKN046 12/09 Q1018=
EGBB 020750Z 31007KT 9999 SCT018 12/09 Q1018=
EGBB 020720Z 32007KT 9999 FEW011 12/10 Q1018=
EGBB 020650Z 32007KT CAVOK 11/10 Q1018=
EGBB 020620Z 30005KT CAVOK 11/09 Q1018=